CST,Max TemperatureF,Mean TemperatureF,Min TemperatureF,Max Dew PointF,MeanDew PointF,Min DewpointF,Max Humidity, Mean Humidity, Min Humidity, Max Sea Level PressureIn, Mean Sea Level PressureIn, Min Sea Level PressureIn, Max VisibilityMiles, Mean VisibilityMiles, Min VisibilityMiles, Max Wind SpeedMPH, Mean Wind SpeedMPH, Max Gust SpeedMPH,PrecipitationIn, CloudCover, Events, WindDirDegrees
2013-12-1,44,37,30,34,31,27,89,79,64,30.13,30.08,30.01,10,8,4,13,5,15,0.00,6,,350
2013-12-2,43,38,33,36,31,26,93,75,45,29.99,29.88,29.78,10,7,2,14,7,18,0.09,8,Rain,117
2013-12-3,51,44,37,49,43,35,96,92,85,29.77,29.73,29.68,4,2,1,14,8,20,T,8,Rain,158
2013-12-4,57,50,42,54,49,36,100,90,74,29.75,29.64,29.52,10,4,1,25,11,37,T,8,Rain,171
2013-12-5,42,32,22,34,19,9,82,67,45,30.29,30.03,29.70,10,10,10,25,14,37,0.00,8,,266
2013-12-6,22,18,14,10,8,2,68,60,38,30.60,30.42,30.28,10,10,10,14,9,17,0.00,5,,312
2013-12-7,21,15,9,6,2,-1,73,56,26,30.75,30.67,30.60,10,10,10,14,6,16,0.00,2,,317
2013-12-8,26,21,16,23,17,3,93,76,42,30.63,30.24,29.94,10,5,1,20,9,24,0.10,8,Snow,100
2013-12-9,26,15,3,22,9,-6,85,70,46,30.30,30.16,29.97,10,8,4,28,14,36,T,7,Snow,259
2013-12-10,22,12,1,10,3,-6,76,62,41,30.35,30.21,30.09,10,10,3,26,14,35,T,5,Snow,244
2013-12-11,21,12,2,14,7,-8,88,70,39,30.63,30.43,30.27,10,7,1,17,10,21,0.01,5,Snow,281
2013-12-12,20,9,-3,11,2,-9,75,65,46,30.61,30.43,30.26,10,10,10,23,10,29,0.00,5,,235
2013-12-13,31,23,15,27,18,10,93,74,55,30.25,30.18,30.11,10,8,1,12,5,16,0.04,7,Snow,99
2013-12-14,30,27,23,28,26,19,96,88,74,30.13,29.99,29.89,10,3,0,16,11,21,0.10,8,Fog-Snow,50
2013-12-15,24,18,12,18,8,3,86,71,54,30.17,30.07,29.94,10,9,6,23,12,30,T,7,Snow,270
2013-12-16,22,17,12,18,11,0,93,74,51,30.21,30.10,30.01,10,6,1,14,5,17,0.01,8,Snow,241
2013-12-17,33,25,16,25,19,12,92,77,51,30.13,30.04,29.95,10,7,1,21,13,26,T,6,Snow,256
2013-12-18,34,25,16,27,16,10,81,64,33,30.21,30.06,29.87,10,10,10,21,12,28,0.00,4,,223
2013-12-19,43,39,34,37,33,28,100,85,67,29.95,29.89,29.81,10,7,1,13,5,18,0.05,7,Rain,116
2013-12-20,37,36,34,37,35,33,100,96,89,29.83,29.78,29.72,7,2,0,14,8,17,0.13,8,Fog-Rain,357
2013-12-21,36,34,32,36,33,30,100,95,90,29.87,29.79,29.63,10,3,0,28,9,33,0.26,8,Fog-Rain,10
2013-12-22,35,31,26,34,29,19,100,88,74,30.15,29.82,29.59,10,7,2,21,11,24,0.05,8,Rain-Snow,319
2013-12-23,27,14,0,22,9,-7,86,75,54,30.53,30.36,30.13,10,8,4,22,14,28,T,5,Snow,259
2013-12-24,19,9,-1,12,1,-7,81,70,45,30.62,30.54,30.42,10,10,3,16,9,22,T,5,Snow,225
2013-12-25,27,23,19,25,20,10,93,82,53,30.39,30.22,30.10,10,6,1,18,11,24,0.02,8,Snow,220
2013-12-26,36,26,15,29,18,9,80,73,59,30.34,30.23,30.10,10,10,6,20,11,24,T,7,Snow,237
2013-12-27,44,35,26,31,29,26,92,73,43,30.32,30.22,30.11,10,9,6,21,10,29,0.00,5,,219
2013-12-28,51,43,34,35,32,30,85,67,40,30.11,30.01,29.86,10,10,10,18,12,28,0.00,2,,212
2013-12-29,39,26,12,30,21,3,93,78,59,30.23,29.97,29.79,10,8,2,24,13,32,T,8,Snow,317
2013-12-30,15,9,3,7,2,-4,85,71,29,30.39,30.27,30.19,10,6,0,15,7,18,T,6,Snow,278
2013-12-31,14,9,4,10,6,-2,86,78,60,30.41,30.33,30.25,10,5,0,16,7,20,0.08,6,Snow,274